Alijilan, Argentina
Current Conditions -  °F | °C
As of 10:00 AM on Sunday 23 Nov 2014 (Local Time) from SANT Reporting Station
Clear Clear  
Wind Chill: 81°   Ceiling: Unl
Heat Index: 81°   Visibility: 6mi
Dew Point: 59°   Wind: 7mph
Humidity: 48%   Direction: 360°N
Pressure: 29.88"   Gusts: NA
Location:  28.1°S, 65.47°W
Report Text: SANT 231300Z 36006KT CAVOK 27/15 Q1012
Loading
Personal Weather Stations






























Interactive Weather Map New forecast layout! Learn more

10-Day Weather Forecast

Advertisements
Track Severe Weather on mobile